sensor_id;sensor_type;location;lat;lon;timestamp;temperature;humidity
7900;DHT22;3995;50.856;4.404;2023-05-16T00:02:14;16.90;50.10
7900;DHT22;3995;50.856;4.404;2023-05-16T00:04:43;16.90;50.10
7900;DHT22;3995;50.856;4.404;2023-05-16T00:07:11;16.90;50.10
7900;DHT22;3995;50.856;4.404;2023-05-16T00:09:39;16.90;50.30
7900;DHT22;3995;50.856;4.404;2023-05-16T00:12:07;16.90;50.30
7900;DHT22;3995;50.856;4.404;2023-05-16T00:14:34;16.90;50.30
7900;DHT22;3995;50.856;4.404;2023-05-16T00:17:02;16.90;50.40
7900;DHT22;3995;50.856;4.404;2023-05-16T00:19:36;16.90;50.30
7900;DHT22;3995;50.856;4.404;2023-05-16T00:22:05;16.90;50.30
7900;DHT22;3995;50.856;4.404;2023-05-16T00:24:33;16.90;50.30
7900;DHT22;3995;50.856;4.404;2023-05-16T00:27:00;16.90;50.40
7900;DHT22;3995;50.856;4.404;2023-05-16T00:29:28;16.80;50.40
7900;DHT22;3995;50.856;4.404;2023-05-16T00:31:56;16.80;50.30
7900;DHT22;3995;50.856;4.404;2023-05-16T00:34:23;16.80;50.30
7900;DHT22;3995;50.856;4.404;2023-05-16T00:36:51;16.80;50.30
7900;DHT22;3995;50.856;4.404;2023-05-16T00:39:20;16.80;50.30
7900;DHT22;3995;50.856;4.404;2023-05-16T00:41:47;16.80;50.30
7900;DHT22;3995;50.856;4.404;2023-05-16T00:44:14;16.80;50.30
7900;DHT22;3995;50.856;4.404;2023-05-16T00:46:42;16.80;50.40
7900;DHT22;3995;50.856;4.404;2023-05-16T00:49:09;16.80;50.40
7900;DHT22;3995;50.856;4.404;2023-05-16T00:51:38;16.80;50.50
7900;DHT22;3995;50.856;4.404;2023-05-16T00:54:06;16.70;50.40
7900;DHT22;3995;50.856;4.404;2023-05-16T00:56:35;16.70;50.40
7900;DHT22;3995;50.856;4.404;2023-05-16T00:59:02;16.70;50.40
7900;DHT22;3995;50.856;4.404;2023-05-16T01:01:31;16.70;50.40
7900;DHT22;3995;50.856;4.404;2023-05-16T01:03:59;16.70;50.40
7900;DHT22;3995;50.856;4.404;2023-05-16T01:06:26;16.70;50.40
7900;DHT22;3995;50.856;4.404;2023-05-16T01:08:53;16.70;50.50
7900;DHT22;3995;50.856;4.404;2023-05-16T01:11:26;16.70;50.50
7900;DHT22;3995;50.856;4.404;2023-05-16T01:14:06;16.70;50.40
7900;DHT22;3995;50.856;4.404;2023-05-16T01:16:41;16.70;50.40
7900;DHT22;3995;50.856;4.404;2023-05-16T01:19:19;16.60;50.50
7900;DHT22;3995;50.856;4.404;2023-05-16T01:22:02;16.60;50.40
7900;DHT22;3995;50.856;4.404;2023-05-16T01:24:33;16.60;50.50
7900;DHT22;3995;50.856;4.404;2023-05-16T01:27:04;16.60;50.50
7900;DHT22;3995;50.856;4.404;2023-05-16T01:29:32;16.60;50.50
7900;DHT22;3995;50.856;4.404;2023-05-16T01:31:59;16.60;50.50
7900;DHT22;3995;50.856;4.404;2023-05-16T01:34:27;16.50;50.30
7900;DHT22;3995;50.856;4.404;2023-05-16T01:37:02;16.60;50.50
7900;DHT22;3995;50.856;4.404;2023-05-16T01:39:36;16.60;50.40
7900;DHT22;3995;50.856;4.404;2023-05-16T01:42:11;16.60;50.40
7900;DHT22;3995;50.856;4.404;2023-05-16T01:44:43;16.60;50.40
7900;DHT22;3995;50.856;4.404;2023-05-16T01:47:13;16.50;50.30
7900;DHT22;3995;50.856;4.404;2023-05-16T01:49:45;16.50;50.30
7900;DHT22;3995;50.856;4.404;2023-05-16T01:52:19;16.50;50.30
7900;DHT22;3995;50.856;4.404;2023-05-16T01:54:52;16.50;50.30
7900;DHT22;3995;50.856;4.404;2023-05-16T01:57:25;16.50;50.40
7900;DHT22;3995;50.856;4.404;2023-05-16T01:59:52;16.50;50.40
7900;DHT22;3995;50.856;4.404;2023-05-16T02:02:20;16.50;50.40
7900;DHT22;3995;50.856;4.404;2023-05-16T02:04:47;16.50;50.50
7900;DHT22;3995;50.856;4.404;2023-05-16T02:07:15;16.50;50.50
7900;DHT22;3995;50.856;4.404;2023-05-16T02:09:43;16.50;50.50
7900;DHT22;3995;50.856;4.404;2023-05-16T02:12:10;16.50;50.50
7900;DHT22;3995;50.856;4.404;2023-05-16T02:14:38;16.50;50.50
7900;DHT22;3995;50.856;4.404;2023-05-16T02:17:06;16.50;50.50
7900;DHT22;3995;50.856;4.404;2023-05-16T02:19:33;16.40;50.40
7900;DHT22;3995;50.856;4.404;2023-05-16T02:22:00;16.40;50.40
7900;DHT22;3995;50.856;4.404;2023-05-16T02:24:28;16.40;50.40
7900;DHT22;3995;50.856;4.404;2023-05-16T02:26:56;16.40;50.50
7900;DHT22;3995;50.856;4.404;2023-05-16T02:29:23;16.40;50.50
7900;DHT22;3995;50.856;4.404;2023-05-16T02:31:52;16.40;50.50
7900;DHT22;3995;50.856;4.404;2023-05-16T02:34:19;16.40;50.50
7900;DHT22;3995;50.856;4.404;2023-05-16T02:36:47;16.40;50.50
7900;DHT22;3995;50.856;4.404;2023-05-16T02:39:14;16.40;50.50
7900;DHT22;3995;50.856;4.404;2023-05-16T02:41:41;16.40;50.50
7900;DHT22;3995;50.856;4.404;2023-05-16T02:44:09;16.40;50.50
7900;DHT22;3995;50.856;4.404;2023-05-16T02:46:36;16.40;50.60
7900;DHT22;3995;50.856;4.404;2023-05-16T02:49:05;16.40;50.60
7900;DHT22;3995;50.856;4.404;2023-05-16T02:51:33;16.40;50.70
7900;DHT22;3995;50.856;4.404;2023-05-16T02:54:00;16.40;50.70
7900;DHT22;3995;50.856;4.404;2023-05-16T02:56:27;16.30;50.70
7900;DHT22;3995;50.856;4.404;2023-05-16T02:58:55;16.30;50.70
7900;DHT22;3995;50.856;4.404;2023-05-16T03:01:23;16.30;50.80
7900;DHT22;3995;50.856;4.404;2023-05-16T03:03:50;16.30;50.80
7900;DHT22;3995;50.856;4.404;2023-05-16T03:06:18;16.30;50.80
7900;DHT22;3995;50.856;4.404;2023-05-16T03:08:45;16.30;50.80
7900;DHT22;3995;50.856;4.404;2023-05-16T03:11:13;16.30;50.80
7900;DHT22;3995;50.856;4.404;2023-05-16T03:13:42;16.30;50.80
7900;DHT22;3995;50.856;4.404;2023-05-16T03:16:09;16.30;50.80
7900;DHT22;3995;50.856;4.404;2023-05-16T03:18:36;16.30;50.90
7900;DHT22;3995;50.856;4.404;2023-05-16T03:21:04;16.20;50.80
7900;DHT22;3995;50.856;4.404;2023-05-16T03:23:33;16.20;50.80
7900;DHT22;3995;50.856;4.404;2023-05-16T03:26:00;16.20;50.80
7900;DHT22;3995;50.856;4.404;2023-05-16T03:28:28;16.20;50.90
7900;DHT22;3995;50.856;4.404;2023-05-16T03:30:55;16.20;50.90
7900;DHT22;3995;50.856;4.404;2023-05-16T03:33:23;16.20;50.90
7900;DHT22;3995;50.856;4.404;2023-05-16T03:35:51;16.20;51.00
7900;DHT22;3995;50.856;4.404;2023-05-16T03:38:18;16.20;50.90
7900;DHT22;3995;50.856;4.404;2023-05-16T03:40:48;16.20;51.00
7900;DHT22;3995;50.856;4.404;2023-05-16T03:43:16;16.20;51.00
7900;DHT22;3995;50.856;4.404;2023-05-16T03:45:43;16.20;51.00
7900;DHT22;3995;50.856;4.404;2023-05-16T03:48:10;16.20;51.00
7900;DHT22;3995;50.856;4.404;2023-05-16T03:50:37;16.20;51.00
7900;DHT22;3995;50.856;4.404;2023-05-16T03:53:05;16.20;51.00
7900;DHT22;3995;50.856;4.404;2023-05-16T03:55:33;16.20;51.00
7900;DHT22;3995;50.856;4.404;2023-05-16T03:58:02;16.20;51.00
7900;DHT22;3995;50.856;4.404;2023-05-16T04:00:29;16.20;51.60
7900;DHT22;3995;50.856;4.404;2023-05-16T04:02:57;16.20;51.00
7900;DHT22;3995;50.856;4.404;2023-05-16T04:05:24;16.20;51.00
7900;DHT22;3995;50.856;4.404;2023-05-16T04:07:51;16.20;51.00
7900;DHT22;3995;50.856;4.404;2023-05-16T04:10:18;16.10;50.90
7900;DHT22;3995;50.856;4.404;2023-05-16T04:12:45;16.10;50.90
7900;DHT22;3995;50.856;4.404;2023-05-16T04:15:15;16.10;50.90
7900;DHT22;3995;50.856;4.404;2023-05-16T04:17:42;16.10;50.90
7900;DHT22;3995;50.856;4.404;2023-05-16T04:20:10;16.10;50.90
7900;DHT22;3995;50.856;4.404;2023-05-16T04:22:37;16.10;50.90
7900;DHT22;3995;50.856;4.404;2023-05-16T04:25:05;16.10;50.90
7900;DHT22;3995;50.856;4.404;2023-05-16T04:27:33;16.10;50.90
7900;DHT22;3995;50.856;4.404;2023-05-16T04:30:01;16.10;51.40
7900;DHT22;3995;50.856;4.404;2023-05-16T04:32:30;16.10;50.80
7900;DHT22;3995;50.856;4.404;2023-05-16T04:35:00;16.10;50.80
7900;DHT22;3995;50.856;4.404;2023-05-16T04:37:27;16.10;51.50
7900;DHT22;3995;50.856;4.404;2023-05-16T04:39:54;16.10;50.90
7900;DHT22;3995;50.856;4.404;2023-05-16T04:42:26;16.10;50.90
7900;DHT22;3995;50.856;4.404;2023-05-16T04:44:53;16.10;51.00
7900;DHT22;3995;50.856;4.404;2023-05-16T04:47:20;16.10;51.00
7900;DHT22;3995;50.856;4.404;2023-05-16T04:49:49;16.00;50.90
7900;DHT22;3995;50.856;4.404;2023-05-16T04:52:18;16.00;50.90
7900;DHT22;3995;50.856;4.404;2023-05-16T04:54:45;16.00;51.00
7900;DHT22;3995;50.856;4.404;2023-05-16T04:57:12;16.00;51.00
7900;DHT22;3995;50.856;4.404;2023-05-16T04:59:39;16.00;51.00
7900;DHT22;3995;50.856;4.404;2023-05-16T05:02:07;16.00;50.90
7900;DHT22;3995;50.856;4.404;2023-05-16T05:04:34;16.10;51.00
7900;DHT22;3995;50.856;4.404;2023-05-16T05:07:04;16.10;51.00
7900;DHT22;3995;50.856;4.404;2023-05-16T05:09:33;16.00;51.50
7900;DHT22;3995;50.856;4.404;2023-05-16T05:12:00;16.00;51.00
7900;DHT22;3995;50.856;4.404;2023-05-16T05:14:27;16.00;50.90
7900;DHT22;3995;50.856;4.404;2023-05-16T05:16:55;16.10;51.00
7900;DHT22;3995;50.856;4.404;2023-05-16T05:19:23;16.10;51.00
7900;DHT22;3995;50.856;4.404;2023-05-16T05:21:50;16.10;51.10
7900;DHT22;3995;50.856;4.404;2023-05-16T05:24:19;16.10;51.00
7900;DHT22;3995;50.856;4.404;2023-05-16T05:26:47;16.10;51.00
7900;DHT22;3995;50.856;4.404;2023-05-16T05:29:14;16.10;51.10
7900;DHT22;3995;50.856;4.404;2023-05-16T05:31:42;16.10;51.10
7900;DHT22;3995;50.856;4.404;2023-05-16T05:34:10;16.10;51.10
7900;DHT22;3995;50.856;4.404;2023-05-16T05:36:37;16.10;51.20
7900;DHT22;3995;50.856;4.404;2023-05-16T05:39:05;16.10;51.20
7900;DHT22;3995;50.856;4.404;2023-05-16T05:41:33;16.10;51.20
7900;DHT22;3995;50.856;4.404;2023-05-16T05:44:01;16.10;51.00
7900;DHT22;3995;50.856;4.404;2023-05-16T05:46:28;16.10;51.00
7900;DHT22;3995;50.856;4.404;2023-05-16T05:48:55;16.10;51.00
7900;DHT22;3995;50.856;4.404;2023-05-16T05:51:23;16.10;51.00
7900;DHT22;3995;50.856;4.404;2023-05-16T05:53:51;16.20;51.00
7900;DHT22;3995;50.856;4.404;2023-05-16T05:56:19;16.10;50.90
7900;DHT22;3995;50.856;4.404;2023-05-16T05:58:48;16.10;50.90
7900;DHT22;3995;50.856;4.404;2023-05-16T06:01:16;16.10;50.90
7900;DHT22;3995;50.856;4.404;2023-05-16T06:03:45;16.10;50.90
7900;DHT22;3995;50.856;4.404;2023-05-16T06:06:14;16.10;51.00
7900;DHT22;3995;50.856;4.404;2023-05-16T06:08:41;16.10;51.00
7900;DHT22;3995;50.856;4.404;2023-05-16T06:11:09;16.10;51.00
7900;DHT22;3995;50.856;4.404;2023-05-16T06:13:37;16.20;51.00
7900;DHT22;3995;50.856;4.404;2023-05-16T06:16:06;16.20;51.00
7900;DHT22;3995;50.856;4.404;2023-05-16T06:18:34;16.20;50.90
7900;DHT22;3995;50.856;4.404;2023-05-16T06:21:01;16.20;50.90
7900;DHT22;3995;50.856;4.404;2023-05-16T06:23:29;16.20;50.90
7900;DHT22;3995;50.856;4.404;2023-05-16T06:25:57;16.20;51.00
7900;DHT22;3995;50.856;4.404;2023-05-16T06:28:24;16.20;50.70
7900;DHT22;3995;50.856;4.404;2023-05-16T06:30:52;16.20;50.70
7900;DHT22;3995;50.856;4.404;2023-05-16T06:33:21;16.20;50.50
7900;DHT22;3995;50.856;4.404;2023-05-16T06:35:48;16.20;50.50
7900;DHT22;3995;50.856;4.404;2023-05-16T06:38:17;16.30;50.50
7900;DHT22;3995;50.856;4.404;2023-05-16T06:40:45;16.30;50.50
7900;DHT22;3995;50.856;4.404;2023-05-16T06:43:13;16.30;50.60
7900;DHT22;3995;50.856;4.404;2023-05-16T06:45:41;16.30;50.70
7900;DHT22;3995;50.856;4.404;2023-05-16T06:48:13;16.30;50.60
7900;DHT22;3995;50.856;4.404;2023-05-16T06:50:45;16.30;50.50
7900;DHT22;3995;50.856;4.404;2023-05-16T06:53:13;16.30;50.50
7900;DHT22;3995;50.856;4.404;2023-05-16T06:55:40;16.30;50.40
7900;DHT22;3995;50.856;4.404;2023-05-16T06:58:07;16.30;50.40
7900;DHT22;3995;50.856;4.404;2023-05-16T07:00:34;16.30;50.50
7900;DHT22;3995;50.856;4.404;2023-05-16T07:03:01;16.30;50.30
7900;DHT22;3995;50.856;4.404;2023-05-16T07:05:28;16.30;50.30
7900;DHT22;3995;50.856;4.404;2023-05-16T07:07:57;16.40;50.30
7900;DHT22;3995;50.856;4.404;2023-05-16T07:10:24;16.40;50.20
7900;DHT22;3995;50.856;4.404;2023-05-16T07:12:52;16.40;50.20
7900;DHT22;3995;50.856;4.404;2023-05-16T07:15:19;16.40;50.10
7900;DHT22;3995;50.856;4.404;2023-05-16T07:17:46;16.40;50.30
7900;DHT22;3995;50.856;4.404;2023-05-16T07:20:15;16.50;50.40
7900;DHT22;3995;50.856;4.404;2023-05-16T07:22:43;16.50;50.30
7900;DHT22;3995;50.856;4.404;2023-05-16T07:25:11;16.50;50.10
7900;DHT22;3995;50.856;4.404;2023-05-16T07:27:41;16.50;50.10
7900;DHT22;3995;50.856;4.404;2023-05-16T07:30:10;16.50;50.10
7900;DHT22;3995;50.856;4.404;2023-05-16T07:32:38;16.50;50.00
7900;DHT22;3995;50.856;4.404;2023-05-16T07:35:06;16.50;49.90
7900;DHT22;3995;50.856;4.404;2023-05-16T07:37:34;16.50;49.90
7900;DHT22;3995;50.856;4.404;2023-05-16T07:40:01;16.50;50.00
7900;DHT22;3995;50.856;4.404;2023-05-16T07:42:30;16.50;50.10
7900;DHT22;3995;50.856;4.404;2023-05-16T07:44:58;16.50;49.90
7900;DHT22;3995;50.856;4.404;2023-05-16T07:47:25;16.60;49.70
7900;DHT22;3995;50.856;4.404;2023-05-16T07:49:52;16.60;49.60
7900;DHT22;3995;50.856;4.404;2023-05-16T07:52:20;16.60;49.60
7900;DHT22;3995;50.856;4.404;2023-05-16T07:54:48;16.60;49.60
7900;DHT22;3995;50.856;4.404;2023-05-16T07:57:15;16.60;49.40
7900;DHT22;3995;50.856;4.404;2023-05-16T07:59:44;16.60;49.10
7900;DHT22;3995;50.856;4.404;2023-05-16T08:02:11;16.60;48.90
7900;DHT22;3995;50.856;4.404;2023-05-16T08:04:39;16.60;48.80
7900;DHT22;3995;50.856;4.404;2023-05-16T08:07:06;16.60;48.70
7900;DHT22;3995;50.856;4.404;2023-05-16T08:09:34;16.60;48.50
7900;DHT22;3995;50.856;4.404;2023-05-16T08:12:02;16.60;48.40
7900;DHT22;3995;50.856;4.404;2023-05-16T08:14:30;16.70;48.20
7900;DHT22;3995;50.856;4.404;2023-05-16T08:16:59;16.70;47.80
7900;DHT22;3995;50.856;4.404;2023-05-16T08:19:28;16.70;47.50
7900;DHT22;3995;50.856;4.404;2023-05-16T08:21:57;16.70;47.50
7900;DHT22;3995;50.856;4.404;2023-05-16T08:24:24;16.70;47.70
7900;DHT22;3995;50.856;4.404;2023-05-16T08:26:51;16.70;47.60
7900;DHT22;3995;50.856;4.404;2023-05-16T08:29:19;16.70;47.40
7900;DHT22;3995;50.856;4.404;2023-05-16T08:31:47;16.70;47.40
7900;DHT22;3995;50.856;4.404;2023-05-16T08:34:16;16.70;47.30
7900;DHT22;3995;50.856;4.404;2023-05-16T08:36:44;16.70;47.20
7900;DHT22;3995;50.856;4.404;2023-05-16T08:39:11;16.70;47.00
7900;DHT22;3995;50.856;4.404;2023-05-16T08:41:39;16.80;46.90
7900;DHT22;3995;50.856;4.404;2023-05-16T08:44:07;16.80;46.60
7900;DHT22;3995;50.856;4.404;2023-05-16T08:46:36;16.80;46.20
7900;DHT22;3995;50.856;4.404;2023-05-16T08:49:04;16.90;46.20
7900;DHT22;3995;50.856;4.404;2023-05-16T08:51:34;16.90;46.20
7900;DHT22;3995;50.856;4.404;2023-05-16T08:54:05;16.90;45.80
7900;DHT22;3995;50.856;4.404;2023-05-16T08:56:35;16.90;45.60
7900;DHT22;3995;50.856;4.404;2023-05-16T08:59:03;16.90;45.70
7900;DHT22;3995;50.856;4.404;2023-05-16T09:01:31;16.90;45.80
7900;DHT22;3995;50.856;4.404;2023-05-16T09:03:59;16.90;45.90
7900;DHT22;3995;50.856;4.404;2023-05-16T09:06:27;16.90;46.10
7900;DHT22;3995;50.856;4.404;2023-05-16T09:08:56;16.90;46.20
7900;DHT22;3995;50.856;4.404;2023-05-16T09:11:24;17.00;46.20
7900;DHT22;3995;50.856;4.404;2023-05-16T09:13:51;16.90;46.20
7900;DHT22;3995;50.856;4.404;2023-05-16T09:16:20;17.00;46.50
7900;DHT22;3995;50.856;4.404;2023-05-16T09:18:53;17.00;46.60
7900;DHT22;3995;50.856;4.404;2023-05-16T09:21:22;17.00;46.30
7900;DHT22;3995;50.856;4.404;2023-05-16T09:23:49;17.00;46.10
7900;DHT22;3995;50.856;4.404;2023-05-16T09:26:18;17.00;46.20
7900;DHT22;3995;50.856;4.404;2023-05-16T09:28:46;17.00;46.20
7900;DHT22;3995;50.856;4.404;2023-05-16T09:31:21;17.00;46.30
7900;DHT22;3995;50.856;4.404;2023-05-16T09:33:51;17.10;46.40
7900;DHT22;3995;50.856;4.404;2023-05-16T09:36:19;17.00;46.60
7900;DHT22;3995;50.856;4.404;2023-05-16T09:38:48;17.10;46.80
7900;DHT22;3995;50.856;4.404;2023-05-16T09:41:20;17.10;46.80
7900;DHT22;3995;50.856;4.404;2023-05-16T09:43:48;17.20;46.60
7900;DHT22;3995;50.856;4.404;2023-05-16T09:46:16;17.20;46.50
7900;DHT22;3995;50.856;4.404;2023-05-16T09:48:44;17.20;46.50
7900;DHT22;3995;50.856;4.404;2023-05-16T09:51:12;17.20;46.40
7900;DHT22;3995;50.856;4.404;2023-05-16T09:53:41;17.20;46.40
7900;DHT22;3995;50.856;4.404;2023-05-16T09:56:11;17.20;46.20
7900;DHT22;3995;50.856;4.404;2023-05-16T09:58:41;17.30;46.10
7900;DHT22;3995;50.856;4.404;2023-05-16T10:01:09;17.30;46.10
7900;DHT22;3995;50.856;4.404;2023-05-16T10:03:38;17.40;46.10
7900;DHT22;3995;50.856;4.404;2023-05-16T10:06:07;17.40;45.60
7900;DHT22;3995;50.856;4.404;2023-05-16T10:08:35;17.50;45.50
7900;DHT22;3995;50.856;4.404;2023-05-16T10:11:03;17.50;45.50
7900;DHT22;3995;50.856;4.404;2023-05-16T10:13:33;17.60;45.00
7900;DHT22;3995;50.856;4.404;2023-05-16T10:16:07;17.60;45.00
7900;DHT22;3995;50.856;4.404;2023-05-16T10:18:38;17.70;44.70
7900;DHT22;3995;50.856;4.404;2023-05-16T10:21:09;17.70;44.60
7900;DHT22;3995;50.856;4.404;2023-05-16T10:23:41;17.70;44.40
7900;DHT22;3995;50.856;4.404;2023-05-16T10:26:10;17.80;44.10
7900;DHT22;3995;50.856;4.404;2023-05-16T10:28:39;17.80;44.10
7900;DHT22;3995;50.856;4.404;2023-05-16T10:31:09;17.80;43.70
7900;DHT22;3995;50.856;4.404;2023-05-16T10:33:37;17.90;43.60
7900;DHT22;3995;50.856;4.404;2023-05-16T10:36:05;17.90;43.70
7900;DHT22;3995;50.856;4.404;2023-05-16T10:38:34;18.00;43.80
7900;DHT22;3995;50.856;4.404;2023-05-16T10:41:03;18.10;43.10
7900;DHT22;3995;50.856;4.404;2023-05-16T10:43:32;18.20;43.10
7900;DHT22;3995;50.856;4.404;2023-05-16T10:46:02;18.30;42.50
7900;DHT22;3995;50.856;4.404;2023-05-16T10:48:33;18.30;42.10
7900;DHT22;3995;50.856;4.404;2023-05-16T10:51:02;18.40;42.30
7900;DHT22;3995;50.856;4.404;2023-05-16T10:53:31;18.40;42.20
7900;DHT22;3995;50.856;4.404;2023-05-16T10:56:10;18.40;41.70
7900;DHT22;3995;50.856;4.404;2023-05-16T10:58:42;18.50;41.80
7900;DHT22;3995;50.856;4.404;2023-05-16T11:01:31;18.40;42.10
7900;DHT22;3995;50.856;4.404;2023-05-16T11:04:10;18.50;42.20
7900;DHT22;3995;50.856;4.404;2023-05-16T11:06:48;18.50;42.20
7900;DHT22;3995;50.856;4.404;2023-05-16T11:09:24;18.50;41.90
7900;DHT22;3995;50.856;4.404;2023-05-16T11:11:59;18.50;41.80
7900;DHT22;3995;50.856;4.404;2023-05-16T11:14:45;18.50;41.80
7900;DHT22;3995;50.856;4.404;2023-05-16T11:17:20;18.60;42.00
7900;DHT22;3995;50.856;4.404;2023-05-16T11:19:51;18.60;41.80
7900;DHT22;3995;50.856;4.404;2023-05-16T11:22:23;18.70;42.00
7900;DHT22;3995;50.856;4.404;2023-05-16T11:24:56;18.70;42.00
7900;DHT22;3995;50.856;4.404;2023-05-16T11:27:26;18.70;41.60
7900;DHT22;3995;50.856;4.404;2023-05-16T11:29:57;18.80;41.70
7900;DHT22;3995;50.856;4.404;2023-05-16T11:32:25;18.80;41.20
7900;DHT22;3995;50.856;4.404;2023-05-16T11:34:55;18.80;40.90
7900;DHT22;3995;50.856;4.404;2023-05-16T11:37:22;18.80;40.90
7900;DHT22;3995;50.856;4.404;2023-05-16T11:39:49;18.80;41.10
7900;DHT22;3995;50.856;4.404;2023-05-16T11:42:17;18.80;41.30
7900;DHT22;3995;50.856;4.404;2023-05-16T11:44:44;18.80;41.40
7900;DHT22;3995;50.856;4.404;2023-05-16T11:47:12;18.90;41.40
7900;DHT22;3995;50.856;4.404;2023-05-16T11:49:39;19.10;41.20
7900;DHT22;3995;50.856;4.404;2023-05-16T11:52:09;19.40;41.10
7900;DHT22;3995;50.856;4.404;2023-05-16T11:54:37;19.60;40.50
7900;DHT22;3995;50.856;4.404;2023-05-16T11:57:04;19.70;40.50
7900;DHT22;3995;50.856;4.404;2023-05-16T11:59:32;19.60;40.40
7900;DHT22;3995;50.856;4.404;2023-05-16T12:02:03;19.50;40.40
7900;DHT22;3995;50.856;4.404;2023-05-16T12:04:31;19.40;40.50
7900;DHT22;3995;50.856;4.404;2023-05-16T12:07:00;19.40;40.70
7900;DHT22;3995;50.856;4.404;2023-05-16T12:09:29;19.40;41.00
7900;DHT22;3995;50.856;4.404;2023-05-16T12:11:57;19.40;41.10
7900;DHT22;3995;50.856;4.404;2023-05-16T12:14:25;19.40;41.20
7900;DHT22;3995;50.856;4.404;2023-05-16T12:16:52;19.50;41.30
7900;DHT22;3995;50.856;4.404;2023-05-16T12:19:20;19.70;41.30
7900;DHT22;3995;50.856;4.404;2023-05-16T12:21:51;19.80;40.90
7900;DHT22;3995;50.856;4.404;2023-05-16T12:24:19;19.80;40.50
7900;DHT22;3995;50.856;4.404;2023-05-16T12:26:48;20.00;40.50
7900;DHT22;3995;50.856;4.404;2023-05-16T12:29:20;20.10;40.00
7900;DHT22;3995;50.856;4.404;2023-05-16T12:31:52;20.20;39.80
7900;DHT22;3995;50.856;4.404;2023-05-16T12:34:19;20.30;39.80
7900;DHT22;3995;50.856;4.404;2023-05-16T12:36:50;20.40;39.50
7900;DHT22;3995;50.856;4.404;2023-05-16T12:39:19;20.40;39.10
7900;DHT22;3995;50.856;4.404;2023-05-16T12:41:49;20.50;39.20
7900;DHT22;3995;50.856;4.404;2023-05-16T12:44:17;20.50;39.00
7900;DHT22;3995;50.856;4.404;2023-05-16T12:46:46;20.50;38.50
7900;DHT22;3995;50.856;4.404;2023-05-16T12:49:18;20.50;38.30
7900;DHT22;3995;50.856;4.404;2023-05-16T12:51:49;20.60;38.70
7900;DHT22;3995;50.856;4.404;2023-05-16T12:54:17;20.80;38.50
7900;DHT22;3995;50.856;4.404;2023-05-16T12:56:48;20.90;38.00
7900;DHT22;3995;50.856;4.404;2023-05-16T12:59:16;20.90;37.50
7900;DHT22;3995;50.856;4.404;2023-05-16T13:01:44;20.80;37.50
7900;DHT22;3995;50.856;4.404;2023-05-16T13:04:12;20.70;37.20
7900;DHT22;3995;50.856;4.404;2023-05-16T13:06:44;20.60;37.30
7900;DHT22;3995;50.856;4.404;2023-05-16T13:09:11;20.50;37.00
7900;DHT22;3995;50.856;4.404;2023-05-16T13:11:40;20.40;36.80
7900;DHT22;3995;50.856;4.404;2023-05-16T13:14:09;20.30;36.70
7900;DHT22;3995;50.856;4.404;2023-05-16T13:16:37;20.20;36.90
7900;DHT22;3995;50.856;4.404;2023-05-16T13:19:05;20.20;37.20
7900;DHT22;3995;50.856;4.404;2023-05-16T13:21:32;20.20;37.30
7900;DHT22;3995;50.856;4.404;2023-05-16T13:24:00;20.30;37.30
7900;DHT22;3995;50.856;4.404;2023-05-16T13:26:27;20.40;37.30
7900;DHT22;3995;50.856;4.404;2023-05-16T13:28:55;20.50;37.90
7900;DHT22;3995;50.856;4.404;2023-05-16T13:31:23;20.60;37.10
7900;DHT22;3995;50.856;4.404;2023-05-16T13:33:51;20.60;36.90
7900;DHT22;3995;50.856;4.404;2023-05-16T13:36:18;20.50;36.70
7900;DHT22;3995;50.856;4.404;2023-05-16T13:38:46;20.50;36.70
7900;DHT22;3995;50.856;4.404;2023-05-16T13:41:14;20.40;36.80
7900;DHT22;3995;50.856;4.404;2023-05-16T13:43:41;20.30;36.90
7900;DHT22;3995;50.856;4.404;2023-05-16T13:46:09;20.30;37.00
7900;DHT22;3995;50.856;4.404;2023-05-16T13:48:38;20.20;37.10
7900;DHT22;3995;50.856;4.404;2023-05-16T13:51:07;20.20;36.90
7900;DHT22;3995;50.856;4.404;2023-05-16T13:53:35;20.10;37.00
7900;DHT22;3995;50.856;4.404;2023-05-16T13:56:04;20.00;36.70
7900;DHT22;3995;50.856;4.404;2023-05-16T13:58:32;20.00;36.70
7900;DHT22;3995;50.856;4.404;2023-05-16T14:00:59;19.90;36.80
7900;DHT22;3995;50.856;4.404;2023-05-16T14:03:26;19.90;37.10
7900;DHT22;3995;50.856;4.404;2023-05-16T14:05:56;19.90;37.30
7900;DHT22;3995;50.856;4.404;2023-05-16T14:08:23;19.90;37.80
7900;DHT22;3995;50.856;4.404;2023-05-16T14:10:51;19.80;37.80
7900;DHT22;3995;50.856;4.404;2023-05-16T14:13:18;19.80;38.00
7900;DHT22;3995;50.856;4.404;2023-05-16T14:15:46;19.70;38.10
7900;DHT22;3995;50.856;4.404;2023-05-16T14:18:14;19.70;38.20
7900;DHT22;3995;50.856;4.404;2023-05-16T14:20:42;19.70;38.40
7900;DHT22;3995;50.856;4.404;2023-05-16T14:23:11;19.70;38.70
7900;DHT22;3995;50.856;4.404;2023-05-16T14:25:38;19.70;38.80
7900;DHT22;3995;50.856;4.404;2023-05-16T14:28:05;19.80;39.00
7900;DHT22;3995;50.856;4.404;2023-05-16T14:30:33;19.80;38.80
7900;DHT22;3995;50.856;4.404;2023-05-16T14:33:01;19.90;38.80
7900;DHT22;3995;50.856;4.404;2023-05-16T14:35:31;19.90;38.90
7900;DHT22;3995;50.856;4.404;2023-05-16T14:37:58;19.90;38.60
7900;DHT22;3995;50.856;4.404;2023-05-16T14:40:27;20.00;38.50
7900;DHT22;3995;50.856;4.404;2023-05-16T14:42:54;20.00;38.10
7900;DHT22;3995;50.856;4.404;2023-05-16T14:45:22;20.00;38.20
7900;DHT22;3995;50.856;4.404;2023-05-16T14:47:50;20.00;38.00
7900;DHT22;3995;50.856;4.404;2023-05-16T14:50:17;20.10;38.00
7900;DHT22;3995;50.856;4.404;2023-05-16T14:52:45;20.20;37.80
7900;DHT22;3995;50.856;4.404;2023-05-16T14:55:13;20.30;37.90
7900;DHT22;3995;50.856;4.404;2023-05-16T14:57:41;20.40;37.80
7900;DHT22;3995;50.856;4.404;2023-05-16T15:00:10;20.50;37.40
7900;DHT22;3995;50.856;4.404;2023-05-16T15:02:38;20.50;37.30
7900;DHT22;3995;50.856;4.404;2023-05-16T15:05:06;20.60;37.20
7900;DHT22;3995;50.856;4.404;2023-05-16T15:07:33;20.70;37.30
7900;DHT22;3995;50.856;4.404;2023-05-16T15:10:01;20.70;37.10
7900;DHT22;3995;50.856;4.404;2023-05-16T15:12:28;20.70;37.20
7900;DHT22;3995;50.856;4.404;2023-05-16T15:14:57;20.60;36.90
7900;DHT22;3995;50.856;4.404;2023-05-16T15:17:25;20.60;36.50
7900;DHT22;3995;50.856;4.404;2023-05-16T15:19:52;20.50;36.50
7900;DHT22;3995;50.856;4.404;2023-05-16T15:22:20;20.40;36.50
7900;DHT22;3995;50.856;4.404;2023-05-16T15:24:49;20.40;36.40
7900;DHT22;3995;50.856;4.404;2023-05-16T15:27:16;20.30;36.20
7900;DHT22;3995;50.856;4.404;2023-05-16T15:29:44;20.20;36.30
7900;DHT22;3995;50.856;4.404;2023-05-16T15:32:13;20.20;36.50
7900;DHT22;3995;50.856;4.404;2023-05-16T15:34:41;20.10;36.20
7900;DHT22;3995;50.856;4.404;2023-05-16T15:37:09;20.10;36.50
7900;DHT22;3995;50.856;4.404;2023-05-16T15:39:37;20.00;36.70
7900;DHT22;3995;50.856;4.404;2023-05-16T15:42:05;20.00;37.00
7900;DHT22;3995;50.856;4.404;2023-05-16T15:44:33;20.00;37.20
7900;DHT22;3995;50.856;4.404;2023-05-16T15:47:00;19.90;37.00
7900;DHT22;3995;50.856;4.404;2023-05-16T15:49:29;19.90;36.90
7900;DHT22;3995;50.856;4.404;2023-05-16T15:51:56;19.90;37.00
7900;DHT22;3995;50.856;4.404;2023-05-16T15:54:24;19.80;36.90
7900;DHT22;3995;50.856;4.404;2023-05-16T15:56:51;19.80;37.00
7900;DHT22;3995;50.856;4.404;2023-05-16T15:59:18;19.70;37.10
7900;DHT22;3995;50.856;4.404;2023-05-16T16:01:45;19.70;37.30
7900;DHT22;3995;50.856;4.404;2023-05-16T16:04:12;19.70;37.30
7900;DHT22;3995;50.856;4.404;2023-05-16T16:06:41;19.60;37.30
7900;DHT22;3995;50.856;4.404;2023-05-16T16:09:09;19.60;37.40
7900;DHT22;3995;50.856;4.404;2023-05-16T16:11:36;19.60;37.60